createdAt,value
2022-11-02T00:04:56.232Z,49.97
2022-11-02T00:09:59.831Z,48.70
2022-11-02T00:15:03.990Z,48.63
2022-11-02T00:20:08.025Z,50.70
2022-11-02T00:25:13.542Z,47.87
2022-11-02T00:30:17.018Z,49.40
2022-11-02T00:35:20.410Z,50.77
2022-11-02T00:40:24.324Z,48.73
2022-11-02T00:45:27.622Z,47.17
2022-11-02T00:50:31.341Z,47.70
2022-11-02T00:55:34.343Z,46.93
2022-11-02T01:00:37.609Z,47.30
2022-11-02T01:05:40.943Z,45.00
2022-11-02T01:10:47.333Z,43.73
2022-11-02T01:15:51.543Z,44.77
2022-11-02T01:20:59.063Z,42.33
2022-11-02T01:26:07.682Z,40.77
2022-11-02T01:31:11.679Z,42.33
2022-11-02T01:36:17.088Z,41.53
2022-11-02T01:41:20.742Z,41.27
2022-11-02T01:46:29.311Z,41.40
2022-11-02T01:51:49.663Z,39.47
2022-11-02T01:57:01.105Z,38.17
2022-11-02T02:02:08.194Z,39.00
2022-11-02T02:07:14.282Z,37.77
2022-11-02T02:12:17.611Z,34.30
2022-11-02T02:17:20.929Z,34.37
2022-11-02T02:22:24.326Z,35.67
2022-11-02T02:28:05.477Z,36.63
2022-11-02T02:33:15.014Z,35.27
2022-11-02T02:38:56.562Z,37.00
2022-11-02T02:44:03.863Z,34.93
2022-11-02T02:49:10.823Z,34.73
2022-11-02T02:54:36.570Z,34.93
2022-11-02T02:59:45.053Z,35.27
2022-11-02T03:04:48.330Z,35.93
2022-11-02T03:10:00.023Z,34.73
2022-11-02T03:15:24.265Z,35.93
2022-11-02T03:20:33.862Z,33.87
2022-11-02T03:26:00.368Z,32.83
2022-11-02T03:31:14.582Z,34.17
2022-11-02T03:36:28.741Z,31.87
2022-11-02T03:41:33.693Z,31.83
2022-11-02T03:46:40.302Z,31.63
2022-11-02T03:51:46.234Z,29.93
2022-11-02T03:56:53.895Z,31.83
2022-11-02T04:01:57.876Z,30.10
2022-11-02T04:07:01.262Z,31.47
2022-11-02T04:12:23.008Z,32.10
2022-11-02T04:17:44.442Z,31.80
2022-11-02T04:23:06.403Z,29.33
2022-11-02T04:28:10.290Z,31.50
2022-11-02T04:33:32.575Z,28.50
2022-11-02T04:38:41.703Z,34.53
2022-11-02T04:43:45.511Z,37.27
2022-11-02T04:48:49.021Z,38.43
2022-11-02T04:53:53.861Z,39.37
2022-11-02T04:58:59.810Z,37.23
2022-11-02T05:04:03.129Z,36.20
2022-11-02T05:09:06.533Z,36.37
2022-11-02T05:14:09.796Z,35.10
2022-11-02T05:19:12.883Z,33.80
2022-11-02T05:24:16.503Z,33.77
2022-11-02T05:29:19.582Z,34.20
2022-11-02T05:34:23.048Z,32.73
2022-11-02T05:39:26.337Z,31.83
2022-11-02T05:44:29.581Z,33.00
2022-11-02T05:49:32.860Z,29.27
2022-11-02T05:54:36.070Z,28.40
2022-11-02T05:59:39.501Z,25.27
2022-11-02T06:04:43.487Z,24.20
2022-11-02T06:09:46.435Z,25.83
2022-11-02T06:14:49.715Z,25.10
2022-11-02T06:19:53.108Z,23.57
2022-11-02T06:24:56.299Z,24.03
2022-11-02T06:29:59.778Z,23.20
2022-11-02T06:35:03.114Z,22.97
2022-11-02T06:40:07.248Z,21.20
2022-11-02T06:45:10.869Z,22.37
2022-11-02T06:50:14.138Z,21.93
2022-11-02T06:55:18.460Z,22.17
2022-11-02T07:00:23.849Z,22.37
2022-11-02T07:05:27.990Z,20.03
2022-11-02T07:10:31.649Z,19.90
2022-11-02T07:15:34.971Z,21.37
2022-11-02T07:20:39.074Z,19.60
2022-11-02T07:25:42.278Z,20.37
2022-11-02T07:30:46.149Z,19.83
2022-11-02T07:35:49.179Z,18.20
2022-11-02T07:40:52.187Z,18.73
2022-11-02T07:45:55.685Z,20.77
2022-11-02T07:51:02.311Z,19.97
2022-11-02T07:56:06.658Z,19.93
2022-11-02T08:01:10.528Z,19.30
2022-11-02T08:06:14.049Z,18.77
2022-11-02T08:11:17.389Z,18.03
2022-11-02T08:16:20.603Z,17.30
2022-11-02T08:21:34.589Z,17.57
2022-11-02T08:26:39.794Z,17.47
2022-11-02T08:31:46.631Z,17.70
2022-11-02T08:36:50.297Z,17.27
2022-11-02T08:41:53.928Z,16.93
2022-11-02T08:47:04.199Z,17.70
2022-11-02T08:52:10.861Z,18.30
2022-11-02T08:57:14.691Z,17.37
2022-11-02T09:02:18.694Z,16.67
2022-11-02T09:07:22.581Z,18.90
2022-11-02T09:12:25.893Z,19.03
2022-11-02T09:17:30.105Z,20.13
2022-11-02T09:22:33.687Z,18.57
2022-11-02T09:27:37.161Z,20.17
2022-11-02T09:32:40.680Z,21.53
2022-11-02T09:37:48.359Z,21.20
2022-11-02T09:43:09.337Z,18.90
2022-11-02T09:48:28.055Z,18.23
2022-11-02T09:53:41.779Z,18.70
2022-11-02T09:58:49.200Z,19.00
2022-11-02T10:04:30.933Z,18.93
2022-11-02T10:09:55.846Z,19.37
2022-11-02T10:15:43.363Z,19.63
2022-11-02T10:20:50.749Z,18.57
2022-11-02T10:25:55.118Z,16.67
2022-11-02T10:31:15.920Z,17.80
2022-11-02T10:36:49.524Z,16.07
2022-11-02T10:42:22.850Z,15.60
2022-11-02T10:48:06.561Z,16.10
2022-11-02T10:53:39.518Z,14.57
2022-11-02T10:58:44.040Z,14.17
2022-11-02T11:03:59.119Z,13.47
2022-11-02T11:09:07.788Z,12.07
2022-11-02T11:19:48.669Z,10.97
2022-11-02T11:24:52.459Z,11.70
2022-11-02T11:29:58.340Z,10.20
2022-11-02T11:35:08.326Z,10.33
2022-11-02T11:40:21.278Z,10.17
2022-11-02T11:45:29.748Z,9.33
2022-11-02T11:50:34.819Z,8.97
2022-11-02T11:55:48.574Z,8.07
2022-11-02T12:01:11.022Z,8.17
2022-11-02T12:06:38.212Z,8.07
2022-11-02T12:12:04.519Z,7.17
2022-11-02T12:17:17.015Z,7.77
2022-11-02T12:22:44.839Z,8.53
2022-11-02T12:28:19.972Z,8.33
2022-11-02T12:33:35.358Z,7.20
2022-11-02T12:39:02.861Z,7.20
2022-11-02T12:44:32.729Z,7.47
2022-11-02T12:50:11.349Z,6.67
2022-11-02T12:55:22.610Z,7.13
2022-11-02T13:00:26.159Z,6.73
2022-11-02T13:05:39.612Z,5.87
2022-11-02T13:10:53.310Z,4.83
2022-11-02T13:15:57.599Z,3.87
2022-11-02T13:21:04.994Z,4.03
2022-11-02T13:26:29.798Z,4.33
2022-11-02T13:31:45.372Z,3.73
2022-11-02T13:36:50.002Z,3.47
2022-11-02T13:42:28.648Z,3.00
2022-11-02T13:47:43.270Z,2.80
2022-11-02T13:52:50.980Z,2.90
2022-11-02T13:57:59.739Z,2.63
2022-11-02T14:03:23.823Z,2.93
2022-11-02T14:08:36.948Z,2.97
2022-11-02T14:13:55.378Z,2.77
2022-11-02T14:19:19.295Z,2.30
2022-11-02T14:24:35.676Z,3.00
2022-11-02T14:29:47.350Z,3.53
2022-11-02T14:34:51.122Z,3.33
2022-11-02T14:40:11.643Z,2.47
2022-11-02T14:45:33.478Z,4.50
2022-11-02T14:50:37.267Z,3.03
2022-11-02T14:55:40.776Z,3.20
2022-11-02T15:00:50.060Z,3.43
2022-11-02T15:06:07.879Z,3.30
2022-11-02T15:11:58.211Z,3.60
2022-11-02T15:17:10.697Z,4.00
2022-11-02T15:22:37.037Z,3.83
2022-11-02T15:27:45.019Z,5.47
2022-11-02T15:33:01.234Z,4.40
2022-11-02T15:38:29.502Z,4.93
2022-11-02T15:43:44.634Z,5.00
2022-11-02T15:49:02.198Z,4.93
2022-11-02T15:54:27.149Z,3.77
2022-11-02T15:59:57.359Z,4.80
2022-11-02T16:05:06.570Z,5.33
2022-11-02T16:10:25.451Z,4.70
2022-11-02T16:15:30.232Z,4.47
2022-11-02T16:20:37.552Z,4.10
2022-11-02T16:25:47.785Z,3.50
2022-11-02T16:31:01.085Z,4.20
2022-11-02T16:36:05.219Z,4.23
2022-11-02T16:41:10.179Z,5.00
2022-11-02T16:46:20.561Z,5.93
2022-11-02T16:51:24.260Z,5.07
2022-11-02T16:56:32.709Z,5.27
2022-11-02T17:01:40.475Z,6.40
2022-11-02T17:06:45.055Z,4.73
2022-11-02T17:11:50.569Z,5.70
2022-11-02T17:17:07.019Z,6.23
2022-11-02T17:22:24.745Z,7.27
2022-11-02T17:27:39.107Z,7.30
2022-11-02T17:32:45.719Z,6.80
2022-11-02T17:37:50.515Z,7.50
2022-11-02T17:43:02.559Z,6.23
2022-11-02T17:48:08.252Z,6.57
2022-11-02T17:53:13.722Z,5.33
2022-11-02T17:58:18.301Z,6.70
2022-11-02T18:03:25.531Z,6.57
2022-11-02T18:08:52.634Z,7.50
2022-11-02T18:13:57.147Z,7.23
2022-11-02T18:19:02.012Z,7.90
2022-11-02T18:24:07.718Z,6.90
2022-11-02T18:29:11.171Z,6.47
2022-11-02T18:34:15.068Z,6.80
2022-11-02T18:39:19.239Z,6.13
2022-11-02T18:44:23.259Z,5.63
2022-11-02T18:49:27.388Z,6.33
2022-11-02T18:54:31.040Z,5.57
2022-11-02T18:59:37.158Z,4.87
2022-11-02T19:04:41.700Z,6.07
2022-11-02T19:09:46.095Z,6.57
2022-11-02T19:15:01.589Z,6.07
2022-11-02T19:20:07.357Z,5.93
2022-11-02T19:25:13.457Z,6.33
2022-11-02T19:30:18.372Z,6.60
2022-11-02T19:35:22.343Z,6.17
2022-11-02T19:40:27.004Z,5.90
2022-11-02T19:45:30.765Z,5.70
2022-11-02T19:50:35.319Z,6.53
2022-11-02T19:55:39.350Z,7.10
2022-11-02T20:00:46.890Z,8.67
2022-11-02T20:05:52.830Z,8.00
2022-11-02T20:11:08.069Z,7.83
2022-11-02T20:16:15.576Z,6.70
2022-11-02T20:21:26.876Z,6.33
2022-11-02T20:26:37.038Z,5.33
2022-11-02T20:31:40.843Z,5.27
2022-11-02T20:36:45.240Z,4.97
2022-11-02T20:41:54.129Z,5.27
2022-11-02T20:46:58.509Z,5.80
2022-11-02T20:52:03.661Z,6.50
2022-11-02T20:57:07.190Z,5.80
2022-11-02T21:02:13.269Z,5.30
2022-11-02T21:07:19.768Z,4.60
2022-11-02T21:12:43.219Z,4.93
2022-11-02T21:17:47.357Z,4.63
2022-11-02T21:22:51.870Z,3.70
2022-11-02T21:27:56.557Z,3.07
2022-11-02T21:33:01.012Z,2.93
2022-11-02T21:38:07.845Z,2.63
2022-11-02T21:43:12.463Z,2.43
2022-11-02T21:48:16.968Z,2.37
2022-11-02T21:53:20.267Z,2.20
2022-11-02T21:58:23.612Z,2.53
2022-11-02T22:03:27.012Z,2.00
2022-11-02T22:08:39.442Z,2.47
2022-11-02T22:13:44.208Z,2.23
2022-11-02T22:18:49.326Z,2.70
2022-11-02T22:23:53.283Z,3.03
2022-11-02T22:28:58.342Z,2.50
2022-11-02T22:34:03.840Z,3.33
2022-11-02T22:39:10.403Z,3.10
2022-11-02T22:44:19.319Z,2.80
2022-11-02T22:49:22.784Z,2.57
2022-11-02T22:54:26.160Z,3.10
2022-11-02T22:59:29.449Z,3.60
2022-11-02T23:04:32.777Z,3.40
2022-11-02T23:09:36.113Z,3.40
2022-11-02T23:14:39.435Z,2.80
2022-11-02T23:19:43.622Z,2.70
2022-11-02T23:25:12.569Z,2.70
2022-11-02T23:30:34.834Z,2.70
2022-11-02T23:35:57.037Z,2.17
2022-11-02T23:41:00.374Z,2.40
2022-11-02T23:46:03.732Z,2.40
2022-11-02T23:51:25.741Z,2.77
2022-11-02T23:56:45.210Z,2.70
